ADDS METAR Data INFO
IDs: Format: Raw Decoded Include TAF

Data at: 2147 UTC 15 Dec 2017

KLCQ 152135Z AUTO 29012KT 10SM SCT024 BKN110 18/13 A3007 RMK AO2
KLCQ 152115Z AUTO 27011KT 10SM BKN024 BKN031 BKN038 18/13 A3007 RMK AO2
KLCQ 152055Z AUTO 28011KT 10SM SCT026 SCT031 SCT040 20/13 A3006 RMK AO2
KLCQ 152035Z AUTO 28012G15KT 10SM SCT026 SCT034 20/13 A3005 RMK AO2
KLCQ 152015Z AUTO 29013G18KT 10SM SCT028 SCT034 20/13 A3005 RMK AO2
KLCQ 151955Z AUTO 26013G16KT 10SM SCT030 SCT039 SCT045 20/13 A3005 RMK AO2
KLCQ 151935Z AUTO 28013G18KT 10SM BKN030 BKN039 20/13 A3004 RMK AO2
KLCQ 151915Z AUTO 27011KT 10SM SCT032 BKN048 20/13 A3004 RMK AO2
KLCQ 151855Z AUTO 28010G18KT 10SM BKN030 BKN036 BKN044 20/13 A3005 RMK AO2
KLCQ 151835Z AUTO 26009KT 10SM BKN032 OVC040 20/13 A3005 RMK AO2
KLCQ 151815Z AUTO 27010KT 10SM BKN030 OVC039 20/13 A3005 RMK AO2
KLCQ 151755Z AUTO 26007KT 10SM BKN030 BKN035 20/13 A3006 RMK AO2
KLCQ 151735Z AUTO 25010KT 10SM SCT029 SCT034 20/13 A3006 RMK AO2
KLCQ 151715Z AUTO 25008KT 10SM SCT026 19/12 A3007 RMK AO2
KLCQ 151655Z AUTO 23004KT 10SM SCT026 19/13 A3007 RMK AO2
KLCQ 151635Z AUTO 23005KT 10SM CLR 18/12 A3008 RMK AO2
KLCQ 151615Z AUTO 22004KT 10SM CLR 18/12 A3008 RMK AO2
KLCQ 151555Z AUTO 21005KT 10SM CLR 17/12 A3008 RMK AO2
KLCQ 151535Z AUTO 00000KT 10SM CLR 16/12 A3008 RMK AO2
KLCQ 151515Z AUTO 00000KT 10SM SCT060 15/11 A3008 RMK AO2
KLCQ 151455Z AUTO 00000KT 10SM SCT060 14/11 A3009 RMK AO2
KLCQ 151435Z AUTO 00000KT 10SM BKN060 13/11 A3008 RMK AO2
KLCQ 151415Z AUTO 00000KT 10SM OVC060 12/11 A3007 RMK AO2
KLCQ 151355Z AUTO 00000KT 10SM BKN050 11/10 A3008 RMK AO2
KLCQ 151335Z AUTO 00000KT 10SM CLR 10/10 A3006 RMK AO2
KLCQ 151315Z AUTO 00000KT 10SM CLR 10/09 A3006 RMK AO2
KLCQ 151255Z AUTO 00000KT 7SM CLR 08/08 A3005 RMK AO2
KLCQ 151235Z AUTO 00000KT 7SM CLR 09/08 A3005 RMK AO2
KLCQ 151215Z AUTO 00000KT 10SM CLR 09/08 A3004 RMK AO2
KLCQ 151155Z AUTO 00000KT 10SM CLR 09/08 A3004 RMK AO2
KLCQ 151135Z AUTO 00000KT 10SM CLR 10/09 A3003 RMK AO2
KLCQ 151115Z AUTO 00000KT 10SM SCT048 11/10 A3004 RMK AO2
KLCQ 151055Z AUTO 00000KT 10SM OVC048 11/10 A3002 RMK AO2
KLCQ 151035Z AUTO 00000KT 10SM OVC048 11/10 A3004 RMK AO2
KLCQ 151015Z AUTO 00000KT 10SM OVC048 11/09 A3002 RMK AO2
KLCQ 150955Z AUTO 00000KT 10SM SCT032 BKN050 11/09 A3002 RMK AO2
KLCQ 150935Z AUTO 00000KT 10SM SCT033 11/09 A3003 RMK AO2
KLCQ 150915Z AUTO 00000KT 10SM CLR 12/10 A3003 RMK AO2
KLCQ 150855Z AUTO 00000KT 10SM SCT036 SCT044 SCT050 12/09 A3002 RMK AO2
KLCQ 150835Z AUTO 00000KT 10SM SCT030 BKN046 BKN055 12/09 A3003 RMK AO2
KLCQ 150815Z AUTO 00000KT 10SM BKN030 OVC039 12/09 A3003 RMK AO2
KLCQ 150755Z AUTO 00000KT 10SM BKN030 OVC041 11/09 A3004 RMK AO2
KLCQ 150735Z AUTO 00000KT 10SM BKN030 BKN043 BKN048 11/08 A3004 RMK AO2
KLCQ 150715Z AUTO 00000KT 10SM SCT030 BKN050 OVC060 12/08 A3004 RMK AO2
KLCQ 150655Z AUTO 00000KT 10SM SCT048 OVC060 12/09 A3004 RMK AO2
KLCQ 150635Z AUTO 00000KT 10SM BKN048 12/08 A3004 RMK AO2
KLCQ 150615Z AUTO 00000KT 10SM SCT047 SCT060 11/08 A3004 RMK AO2
KLCQ 150555Z AUTO 00000KT 10SM CLR 12/08 A3004 RMK AO2
KLCQ 150535Z AUTO 00000KT 10SM CLR 13/08 A3004 RMK AO2
KLCQ 150515Z AUTO 19003KT 10SM SCT055 12/08 A3004 RMK AO2
KLCQ 150455Z AUTO 00000KT 10SM SCT055 12/09 A3005 RMK AO2
KLCQ 150435Z AUTO 25003KT 10SM BKN055 11/09 A3005 RMK AO2
KLCQ 150415Z AUTO 26003KT 10SM SCT049 BKN055 12/09 A3005 RMK AO2
KLCQ 150355Z AUTO 00000KT 10SM BKN049 BKN055 13/09 A3005 RMK AO2
KLCQ 150335Z AUTO 23003KT 10SM SCT049 BKN055 13/09 A3005 RMK AO2
KLCQ 150315Z AUTO 22003KT 10SM BKN055 13/09 A3005 RMK AO2
KLCQ 150255Z AUTO 22004KT 10SM CLR 13/09 A3005 RMK AO2
KLCQ 150235Z AUTO 23003KT 10SM SCT060 13/09 A3005 RMK AO2
KLCQ 150215Z AUTO 22004KT 10SM BKN050 14/09 A3005 RMK AO2
KLCQ 150155Z AUTO 24005KT 10SM SCT055 14/09 A3005 RMK AO2
KLCQ 150135Z AUTO 23004KT 10SM SCT065 14/10 A3005 RMK AO2
KLCQ 150110Z AUTO 22005KT 10SM OVC065 15/10 A3004 RMK AO2
KLCQ 150055Z AUTO 23004KT 10SM SCT040 OVC065 15/10 A3003 RMK AO2
KLCQ 150035Z AUTO 23006KT 10SM OVC038 15/10 A3003 RMK AO2
KLCQ 150015Z AUTO 00000KT 10SM BKN034 OVC060 14/08 A3003 RMK AO2
KLCQ 142355Z AUTO 00000KT 10SM BKN060 13/08 A3002 RMK AO2
KLCQ 142335Z AUTO 18003KT 10SM SCT045 BKN060 13/08 A3002 RMK AO2
KLCQ 142315Z AUTO 14003KT 10SM BKN045 13/08 A3001 RMK AO2
KLCQ 142255Z AUTO 00000KT 10SM BKN043 13/08 A3002 RMK AO2
KLCQ 142235Z AUTO 00000KT 10SM SCT041 15/06 A3001 RMK AO2
KLCQ 142215Z AUTO 00000KT 10SM BKN045 16/07 A3000 RMK AO2
KLCQ 142155Z AUTO 00000KT 10SM BKN045 17/06 A3000 RMK AO2
KLCQ 142135Z AUTO 34004KT 10SM CLR 18/06 A2999 RMK AO2
KLCQ 142115Z AUTO 27004KT 10SM CLR 18/06 A2999 RMK AO2
KLCQ 142055Z AUTO 25004KT 10SM CLR 18/06 A2998 RMK AO2
KLCQ 142035Z AUTO 26005KT 10SM CLR 18/06 A2997 RMK AO2
KLCQ 142015Z AUTO 27009KT 10SM CLR 19/05 A2997 RMK AO2
KLCQ 141955Z AUTO 25010KT 10SM CLR 20/06 A2998 RMK AO2
KLCQ 141935Z AUTO 25009KT 10SM CLR 20/05 A2997 RMK AO2
KLCQ 141915Z AUTO 27007G16KT 10SM CLR 20/04 A2997 RMK AO2
KLCQ 141855Z AUTO 26008KT 10SM CLR 20/02 A2998 RMK AO2
KLCQ 141835Z AUTO 25009KT 210V280 10SM CLR 19/01 A2998 RMK AO2
KLCQ 141815Z AUTO 27007KT 10SM CLR 19/01 A2999 RMK AO2
KLCQ 141755Z AUTO 26007KT 10SM CLR 18/M01 A2999 RMK AO2
KLCQ 141735Z AUTO 26009KT 10SM CLR 17/M03 A3000 RMK AO2
KLCQ 141715Z AUTO 23009KT 10SM CLR 18/M02 A3000 RMK AO2
KLCQ 141655Z AUTO 25008G14KT 10SM CLR 17/M02 A3003 RMK AO2
KLCQ 141635Z AUTO 24007KT 10SM CLR 17/00 A3004 RMK AO2
KLCQ 141615Z AUTO 28010KT 10SM CLR 16/M01 A3005 RMK AO2
KLCQ 141555Z AUTO 29004KT 10SM CLR 15/01 A3005 RMK AO2
KLCQ 141535Z AUTO 28006KT 10SM CLR 14/02 A3005 RMK AO2
KLCQ 141515Z AUTO 26007KT 10SM CLR 13/02 A3005 RMK AO2
KLCQ 141455Z AUTO 26004KT 10SM CLR 12/05 A3004 RMK AO2
KLCQ 141435Z AUTO 25005KT 10SM CLR 12/05 A3005 RMK AO2
KLCQ 141415Z AUTO 27003KT 10SM CLR 10/07 A3004 RMK AO2
KLCQ 141355Z AUTO 00000KT 10SM CLR 08/07 A3003 RMK AO2
KLCQ 141335Z AUTO 00000KT 10SM CLR 06/06 A3002 RMK AO2
KLCQ 141315Z AUTO 00000KT 10SM CLR 06/05 A3003 RMK AO2
KLCQ 141255Z AUTO 00000KT 10SM CLR 05/05 A3002 RMK AO2
KLCQ 141235Z AUTO 00000KT 10SM CLR 05/05 A3002 RMK AO2
KLCQ 141215Z AUTO 00000KT 10SM CLR 05/05 A3001 RMK AO2
KLCQ 141155Z AUTO 00000KT 10SM CLR 05/04 A3001 RMK AO2
KLCQ 141135Z AUTO 00000KT 10SM CLR 05/05 A3000 RMK AO2
KLCQ 141115Z AUTO 00000KT 10SM SCT034 05/05 A3001 RMK AO2
KLCQ 141055Z AUTO 31003KT 10SM SCT034 05/04 A3000 RMK AO2
KLCQ 141035Z AUTO 00000KT 10SM CLR 04/03 A2999 RMK AO2
KLCQ 141015Z AUTO 00000KT 10SM CLR 03/03 A2998 RMK AO2
KLCQ 140955Z AUTO 00000KT 10SM CLR 03/03 A2998 RMK AO2